Time;durP1;ratioP1;P1;durP2;ratioP2;P2;SDS_P1;SDS_P2;PMS_P1;PMS_P2;Temp;Humidity;BMP_temperature;BMP_pressure;BME280_temperature;BME280_humidity;BME280_pressure;Samples;Min_cycle;Max_cycle;Signal;HPM_P1;HPM_P2
2022/10/26 00:00:37;;;;;;;21.73;11.27;;;7.30;99.90;;;;;;10056204;29;20229;-82
2022/10/26 00:05:40;;;;;;;18.17;12.43;;;7.20;99.90;;;;;;10053575;29;20257;-81
2022/10/26 00:10:43;;;;;;;38.27;15.07;;;7.10;99.90;;;;;;10054162;29;20253;-81
2022/10/26 00:15:45;;;;;;;19.10;13.17;;;7.10;99.90;;;;;;10040319;29;20221;-81
2022/10/26 00:20:48;;;;;;;23.10;13.37;;;7.10;99.90;;;;;;10055758;29;20233;-82
2022/10/26 00:25:54;;;;;;;23.77;14.57;;;7.10;99.90;;;;;;10055488;29;20656;-82
2022/10/26 00:31:07;;;;;;;20.47;12.20;;;7.00;99.90;;;;;;10039453;29;20286;-82
2022/10/26 00:36:12;;;;;;;19.93;13.90;;;;;;;;;;10038612;29;20247;-82
2022/10/26 00:41:16;;;;;;;27.33;14.47;;;;;;;;;;10055143;29;20245;-82
2022/10/26 00:46:25;;;;;;;25.53;14.93;;;6.80;99.90;;;;;;10050172;29;20677;-81
2022/10/26 00:51:36;;;;;;;22.43;14.63;;;6.60;99.90;;;;;;10017083;29;20318;-81
2022/10/26 00:56:39;;;;;;;23.17;13.07;;;6.60;99.90;;;;;;10023342;29;20707;-81
2022/10/26 01:01:45;;;;;;;20.40;12.83;;;6.80;99.90;;;;;;10037076;29;20241;-81
2022/10/26 01:06:49;;;;;;;22.50;15.33;;;7.00;99.90;;;;;;10037825;29;20312;-82
2022/10/26 01:11:51;;;;;;;26.10;14.30;;;7.20;99.90;;;;;;10054401;29;20266;-82
2022/10/26 01:17:12;;;;;;;23.47;13.97;;;7.40;99.90;;;;;;10053589;29;20245;-82
2022/10/26 01:22:31;;;;;;;25.17;13.37;;;7.30;99.90;;;;;;10036654;29;20241;-82
2022/10/26 01:27:50;;;;;;;23.97;14.30;;;7.10;99.90;;;;;;10037402;29;20244;-82
2022/10/26 01:33:08;;;;;;;73.33;19.23;;;7.10;99.90;;;;;;10024559;29;20291;-82
2022/10/26 01:38:21;;;;;;;40.27;15.03;;;7.10;99.90;;;;;;10054502;29;20237;-82
2022/10/26 01:43:29;;;;;;;26.50;13.57;;;6.90;99.90;;;;;;10052824;29;20701;-81
2022/10/26 01:48:33;;;;;;;32.20;15.23;;;7.00;99.90;;;;;;10052618;29;20241;-81
2022/10/26 01:53:40;;;;;;;34.57;14.77;;;7.10;99.90;;;;;;10036541;29;20403;-81
2022/10/26 01:59:07;;;;;;;29.77;16.03;;;7.20;99.90;;;;;;10052204;29;20270;-81
2022/10/26 02:04:34;;;;;;;29.77;14.67;;;7.40;99.90;;;;;;10051495;29;20282;-81
2022/10/26 02:09:57;;;;;;;26.87;14.17;;;7.50;99.90;;;;;;10048527;29;20653;-81
2022/10/26 02:15:07;;;;;;;29.93;15.10;;;7.50;99.90;;;;;;10052564;29;20639;-81
2022/10/26 02:20:17;;;;;;;33.27;15.90;;;7.70;99.90;;;;;;10052023;29;20274;-81
2022/10/26 02:25:24;;;;;;;26.60;14.20;;;7.80;99.90;;;;;;10034296;29;20730;-82
2022/10/26 02:30:27;;;;;;;40.43;16.40;;;7.90;99.90;;;;;;10051837;29;20264;-82
2022/10/26 02:35:34;;;;;;;48.63;16.03;;;8.00;99.90;;;;;;10052011;29;20237;-82
2022/10/26 02:40:37;;;;;;;32.00;15.47;;;8.10;99.90;;;;;;10036831;29;20308;-82
2022/10/26 02:45:48;;;;;;;32.90;15.60;;;8.10;99.90;;;;;;10057997;29;20706;-82
2022/10/26 02:51:19;;;;;;;44.13;16.63;;;8.00;99.90;;;;;;10042505;29;20273;-81
2022/10/26 02:56:38;;;;;;;44.23;16.10;;;8.10;99.90;;;;;;10058083;29;20257;-81
2022/10/26 03:01:41;;;;;;;45.90;15.97;;;8.10;99.90;;;;;;10059167;29;20274;-81
2022/10/26 03:06:53;;;;;;;36.27;16.30;;;8.10;99.90;;;;;;10059111;29;20285;-81
2022/10/26 03:11:56;;;;;;;37.10;14.93;;;8.10;99.90;;;;;;10057788;29;20714;-81
2022/10/26 03:16:58;;;;;;;41.97;17.60;;;8.10;99.90;;;;;;10059097;29;20661;-82
2022/10/26 03:22:01;;;;;;;35.33;16.97;;;8.10;99.90;;;;;;10058130;29;20237;-81
2022/10/26 03:27:03;;;;;;;24.03;15.77;;;8.10;99.90;;;;;;10057197;29;20298;-81
2022/10/26 03:32:06;;;;;;;51.53;15.23;;;8.10;99.90;;;;;;10022455;29;20261;-81
2022/10/26 03:37:09;;;;;;;38.83;15.63;;;8.10;99.90;;;;;;10040067;29;20221;-81
2022/10/26 03:42:11;;;;;;;31.10;14.50;;;8.10;99.90;;;;;;10053085;29;20237;-81
2022/10/26 03:47:13;;;;;;;51.93;17.73;;;8.10;99.90;;;;;;10040499;29;20258;-82
2022/10/26 03:52:16;;;;;;;52.77;19.07;;;8.10;99.90;;;;;;10054516;29;20253;-81
2022/10/26 03:57:18;;;;;;;32.53;14.50;;;8.00;99.90;;;;;;10053725;29;20699;-84
2022/10/26 04:02:21;;;;;;;35.33;17.80;;;8.00;99.90;;;;;;10055413;29;20652;-82
2022/10/26 04:07:23;;;;;;;46.17;19.03;;;8.00;99.90;;;;;;10038452;29;20252;-81
2022/10/26 04:12:26;;;;;;;46.17;18.20;;;7.90;99.90;;;;;;10056451;29;20701;-81
2022/10/26 04:17:28;;;;;;;44.90;18.70;;;7.90;99.90;;;;;;10056268;29;20697;-81
2022/10/26 04:22:31;;;;;;;44.33;19.70;;;8.00;99.90;;;;;;10054105;29;20241;-81
2022/10/26 04:27:34;;;;;;;45.43;17.87;;;8.00;99.90;;;;;;10054862;29;20294;-81
2022/10/26 04:32:37;;;;;;;43.07;19.47;;;7.90;99.90;;;;;;10058491;29;20249;-82
2022/10/26 04:37:39;;;;;;;53.90;23.60;;;8.00;99.90;;;;;;10051176;29;20233;-81
2022/10/26 04:42:43;;;;;;;60.43;30.83;;;7.90;99.90;;;;;;10054723;29;20226;-82
2022/10/26 04:47:46;;;;;;;58.87;28.17;;;8.00;99.90;;;;;;10054214;29;20229;-81
2022/10/26 04:52:50;;;;;;;44.67;22.07;;;8.00;99.90;;;;;;10028587;29;20257;-81
2022/10/26 04:57:53;;;;;;;27.90;16.07;;;8.00;99.90;;;;;;10012426;29;20257;-81
2022/10/26 05:03:02;;;;;;;31.07;16.00;;;7.90;99.90;;;;;;10051786;29;20294;-82
2022/10/26 05:08:05;;;;;;;42.37;17.43;;;7.80;99.90;;;;;;10050570;29;20237;-81
2022/10/26 05:13:09;;;;;;;102.87;33.97;;;7.70;99.90;;;;;;10036690;29;20606;-81
2022/10/26 05:18:11;;;;;;;86.70;37.67;;;7.60;99.90;;;;;;10036693;29;20233;-81
2022/10/26 05:23:17;;;;;;;43.90;21.90;;;7.40;99.90;;;;;;10053235;29;20268;-81
2022/10/26 05:28:20;;;;;;;33.80;18.20;;;7.50;99.90;;;;;;10053766;29;20640;-81
2022/10/26 05:33:22;;;;;;;21.73;13.97;;;7.30;99.90;;;;;;10034644;29;20258;-81
2022/10/26 05:38:25;;;;;;;32.47;15.93;;;7.30;99.90;;;;;;10015470;29;20241;-81
2022/10/26 05:43:32;;;;;;;40.20;17.90;;;7.30;99.90;;;;;;10029398;29;20262;-81
2022/10/26 05:48:34;;;;;;;33.10;19.60;;;7.30;99.90;;;;;;10036182;29;20245;-81
2022/10/26 05:53:37;;;;;;;43.43;22.23;;;7.30;99.90;;;;;;10052455;29;20273;-85
2022/10/26 05:58:40;;;;;;;43.97;24.17;;;7.40;99.90;;;;;;10052757;29;20916;-86
2022/10/26 06:03:49;;;;;;;42.13;22.20;;;7.40;99.90;;;;;;10033307;29;20281;-85
2022/10/26 06:08:51;;;;;;;48.03;22.17;;;7.40;99.90;;;;;;10035528;29;20225;-82
2022/10/26 06:13:59;;;;;;;47.70;21.77;;;7.30;99.90;;;;;;10052510;29;20253;-82
2022/10/26 06:19:19;;;;;;;46.63;18.40;;;7.20;99.90;;;;;;10063376;29;20228;-83
2022/10/26 06:24:45;;;;;;;41.40;18.10;;;7.30;99.90;;;;;;10062718;29;20236;-81
2022/10/26 06:30:02;;;;;;;26.77;14.53;;;7.40;99.90;;;;;;10064205;29;20253;-81
2022/10/26 06:35:35;;;;;;;25.77;14.83;;;7.50;99.90;;;;;;10046949;29;20854;-81
2022/10/26 06:40:41;;;;;;;46.30;23.80;;;7.40;99.90;;;;;;10062606;29;20244;-81
2022/10/26 06:45:46;;;;;;;36.70;23.63;;;8.20;99.90;;;;;;10065145;29;20284;-81
2022/10/26 06:50:52;;;;;;;72.77;32.93;;;7.60;99.90;;;;;;10063661;29;20253;-81
2022/10/26 06:55:58;;;;;;;49.37;25.40;;;7.60;99.90;;;;;;10064938;29;20309;-81
2022/10/26 07:01:01;;;;;;;33.03;16.53;;;7.60;99.90;;;;;;10058408;29;20230;-81
2022/10/26 07:06:04;;;;;;;30.67;16.17;;;7.90;99.90;;;;;;10045666;29;20743;-81
2022/10/26 07:11:08;;;;;;;30.57;13.40;;;7.80;99.90;;;;;;10062771;29;20261;-81
2022/10/26 07:16:10;;;;;;;34.57;17.03;;;8.00;99.90;;;;;;10028704;29;20233;-82
2022/10/26 07:21:13;;;;;;;50.57;19.57;;;8.10;99.90;;;;;;10068961;29;20668;-82
2022/10/26 07:26:15;;;;;;;65.70;22.40;;;8.10;99.90;;;;;;10061140;29;20281;-82
2022/10/26 07:31:18;;;;;;;55.30;21.60;;;8.30;99.90;;;;;;10039888;29;20799;-82
2022/10/26 07:36:21;;;;;;;60.83;21.20;;;8.30;99.90;;;;;;10056306;29;20237;-81
2022/10/26 07:41:23;;;;;;;38.73;17.03;;;8.30;99.90;;;;;;10055334;29;20704;-81
2022/10/26 07:46:26;;;;;;;41.87;18.67;;;8.40;99.90;;;;;;10038949;29;20241;-82
2022/10/26 07:51:28;;;;;;;26.93;16.53;;;8.60;99.90;;;;;;10056508;29;20305;-82
2022/10/26 07:56:31;;;;;;;32.83;18.73;;;9.90;99.90;;;;;;10054701;29;20273;-81
2022/10/26 08:01:34;;;;;;;64.67;23.07;;;9.00;99.90;;;;;;10054973;29;20723;-80
2022/10/26 08:06:38;;;;;;;50.07;20.23;;;9.00;99.90;;;;;;10037624;29;20217;-81
2022/10/26 08:11:41;;;;;;;44.97;18.80;;;9.00;99.90;;;;;;10036302;29;20265;-81
2022/10/26 08:16:43;;;;;;;37.93;16.30;;;9.20;99.90;;;;;;10057634;29;20324;-81
2022/10/26 08:21:46;;;;;;;54.73;16.93;;;9.30;99.90;;;;;;10059427;29;20700;-82
2022/10/26 08:26:48;;;;;;;38.43;17.07;;;9.40;99.90;;;;;;10045837;29;20294;-81
2022/10/26 08:31:50;;;;;;;56.77;19.33;;;9.40;99.90;;;;;;10052970;29;20298;-81
2022/10/26 08:36:53;;;;;;;41.97;17.63;;;9.40;99.90;;;;;;10047485;29;20301;-82
2022/10/26 08:42:09;;;;;;;57.20;20.07;;;9.70;99.90;;;;;;10053665;29;20252;-82
2022/10/26 08:47:21;;;;;;;35.03;19.43;;;9.70;99.90;;;;;;10048552;29;20293;-82
2022/10/26 08:52:31;;;;;;;57.80;21.30;;;10.00;99.90;;;;;;10033621;29;20252;-82
2022/10/26 08:57:40;;;;;;;43.20;21.13;;;10.00;99.90;;;;;;10053840;29;20317;-81
2022/10/26 09:02:42;;;;;;;37.03;22.13;;;10.20;99.90;;;;;;10036060;29;20230;-82
2022/10/26 09:07:49;;;;;;;44.77;21.30;;;10.10;99.90;;;;;;10052206;29;20241;-81
2022/10/26 09:13:13;;;;;;;41.47;21.80;;;10.20;99.90;;;;;;10053238;29;20742;-82
2022/10/26 09:18:19;;;;;;;43.30;20.60;;;10.50;99.90;;;;;;10035356;29;20229;-81
2022/10/26 09:23:37;;;;;;;39.17;20.67;;;10.20;99.90;;;;;;10050756;29;20285;-81
2022/10/26 09:28:43;;;;;;;39.37;19.97;;;10.70;99.90;;;;;;10053112;29;20708;-81
2022/10/26 09:33:46;;;;;;;33.87;21.80;;;10.40;99.90;;;;;;10050791;29;20253;-81
2022/10/26 09:39:19;;;;;;;40.63;19.47;;;10.70;99.90;;;;;;10034349;29;20286;-82
2022/10/26 09:44:24;;;;;;;30.47;19.47;;;11.00;99.90;;;;;;10049286;29;20252;-82
2022/10/26 09:49:51;;;;;;;35.23;20.97;;;11.00;99.90;;;;;;10047470;29;20233;-82
2022/10/26 09:54:53;;;;;;;40.50;21.40;;;11.20;99.90;;;;;;10034186;29;20261;-82
2022/10/26 09:59:56;;;;;;;37.73;22.57;;;11.30;99.90;;;;;;10050926;29;20237;-82
2022/10/26 10:04:59;;;;;;;37.80;22.47;;;11.50;99.90;;;;;;10034619;29;20282;-82
2022/10/26 10:10:13;;;;;;;45.73;24.70;;;11.70;99.90;;;;;;10050737;29;20241;-82
2022/10/26 10:15:22;;;;;;;45.30;25.53;;;11.60;99.90;;;;;;10046972;29;20262;-81
2022/10/26 10:20:31;;;;;;;63.03;30.40;;;11.90;99.90;;;;;;10033309;29;20230;-82
2022/10/26 10:25:41;;;;;;;41.03;24.47;;;11.70;99.90;;;;;;10033117;29;20296;-82
2022/10/26 10:30:53;;;;;;;32.33;22.33;;;11.50;99.90;;;;;;10033368;29;20261;-82
2022/10/26 10:35:57;;;;;;;36.70;22.77;;;11.80;99.90;;;;;;10050085;29;20254;-82
2022/10/26 10:41:02;;;;;;;33.07;22.17;;;12.10;99.90;;;;;;10045482;29;20301;-82
2022/10/26 10:46:05;;;;;;;41.40;24.70;;;12.00;99.90;;;;;;10049371;29;20286;-82
2022/10/26 10:51:16;;;;;;;36.97;23.23;;;11.90;99.90;;;;;;10033058;29;20254;-82
2022/10/26 10:56:33;;;;;;;34.10;21.23;;;11.70;99.90;;;;;;10049513;29;20257;-81
2022/10/26 11:01:48;;;;;;;38.73;23.70;;;12.10;99.90;;;;;;10039236;29;20691;-80
2022/10/26 11:06:53;;;;;;;31.63;21.40;;;12.50;99.90;;;;;;10040117;29;20647;-81
2022/10/26 11:12:14;;;;;;;31.93;20.93;;;12.60;99.90;;;;;;10040427;29;20660;-81
2022/10/26 11:17:24;;;;;;;33.30;22.33;;;13.00;99.90;;;;;;10041525;29;20244;-81
2022/10/26 11:22:54;;;;;;;39.83;25.70;;;12.80;99.90;;;;;;10039714;29;20249;-81
2022/10/26 11:28:01;;;;;;;38.53;25.17;;;12.80;99.90;;;;;;10055684;29;20291;-82
2022/10/26 11:33:24;;;;;;;37.67;24.80;;;12.90;99.90;;;;;;10039253;29;20257;-81
2022/10/26 11:38:44;;;;;;;39.07;25.77;;;12.70;99.90;;;;;;10055411;29;20293;-82
2022/10/26 11:44:20;;;;;;;46.30;25.57;;;12.80;99.90;;;;;;10040309;29;20250;-82
2022/10/26 11:50:02;;;;;;;42.33;26.20;;;12.70;99.90;;;;;;10056026;29;20240;-81
2022/10/26 11:55:07;;;;;;;36.97;25.00;;;13.00;99.90;;;;;;9869927;30;20270;-81
2022/10/26 12:00:19;;;;;;;34.03;24.43;;;13.60;99.90;;;;;;9884849;30;20371;-81
2022/10/26 12:05:32;;;;;;;38.93;23.73;;;13.70;99.90;;;;;;9899598;30;20314;-81
2022/10/26 12:10:38;;;;;;;32.50;20.63;;;13.70;99.90;;;;;;9930414;23;20291;-82
2022/10/26 12:15:50;;;;;;;34.03;22.50;;;14.30;99.90;;;;;;10069482;23;20578;-94
2022/10/26 12:21:07;;;;;;;33.27;22.43;;;14.00;99.90;;;;;;10044142;29;20238;-95
2022/10/26 12:26:37;;;;;;;35.90;22.37;;;14.00;99.90;;;;;;10041908;29;20246;-94
2022/10/26 12:31:42;;;;;;;27.53;20.30;;;14.40;99.90;;;;;;10035887;29;20241;-95
2022/10/26 12:36:53;;;;;;;30.57;20.70;;;14.30;99.90;;;;;;10035010;29;20235;-95
2022/10/26 12:42:05;;;;;;;29.57;21.20;;;14.30;99.90;;;;;;10048060;29;20220;-94
2022/10/26 12:47:26;;;;;;;32.53;22.40;;;14.30;99.90;;;;;;10044770;29;20216;-95
2022/10/26 12:52:44;;;;;;;30.87;21.60;;;14.40;99.90;;;;;;10062699;29;20217;-95
2022/10/26 12:58:05;;;;;;;25.87;19.97;;;14.40;99.90;;;;;;10041953;29;20197;-94
2022/10/26 13:03:39;;;;;;;32.37;21.73;;;14.40;99.90;;;;;;10059181;29;20205;-94
2022/10/26 13:08:51;;;;;;;27.30;20.97;;;14.70;99.90;;;;;;10041697;29;20205;-94
2022/10/26 13:14:05;;;;;;;26.07;19.33;;;14.60;99.90;;;;;;10025413;29;20229;-95
2022/10/26 13:19:33;;;;;;;25.50;19.20;;;14.80;99.90;;;;;;10016640;29;20724;-96
2022/10/26 13:24:35;;;;;;;23.07;16.60;;;14.90;99.90;;;;;;10001312;29;20263;-94
2022/10/26 13:30:04;;;;;;;18.70;15.80;;;15.00;99.90;;;;;;10001346;29;20274;-93
2022/10/26 13:35:12;;;;;;;21.67;15.53;;;15.00;99.90;;;;;;10016394;29;20242;-95
2022/10/26 13:40:26;;;;;;;14.40;12.90;;;15.30;99.90;;;;;;10016491;29;20243;-95
2022/10/26 13:45:34;;;;;;;20.07;12.47;;;15.30;99.90;;;;;;9966849;29;20210;-95
2022/10/26 13:50:54;;;;;;;18.00;12.47;;;15.20;99.90;;;;;;9978900;29;20214;-95
2022/10/26 13:56:22;;;;;;;12.63;11.03;;;15.00;99.90;;;;;;9993366;29;20275;-95
2022/10/26 14:01:25;;;;;;;13.87;11.83;;;14.90;99.90;;;;;;9978087;29;20267;-94
2022/10/26 14:06:32;;;;;;;16.93;11.90;;;14.80;99.90;;;;;;9978005;29;20226;-94
2022/10/26 14:11:44;;;;;;;15.77;12.00;;;14.50;99.90;;;;;;9962331;29;20262;-94
2022/10/26 14:16:49;;;;;;;18.77;13.90;;;14.40;99.90;;;;;;9978357;29;20233;-94
2022/10/26 14:21:53;;;;;;;18.33;13.90;;;14.40;99.90;;;;;;10054479;29;20608;-93
2022/10/26 14:26:57;;;;;;;20.03;12.30;;;14.40;99.90;;;;;;10037015;29;20265;-93
2022/10/26 14:31:59;;;;;;;29.47;12.93;;;14.40;99.90;;;;;;10037593;29;20233;-93
2022/10/26 14:37:03;;;;;;;21.17;11.30;;;14.40;99.90;;;;;;10025074;29;20206;-95
2022/10/26 14:42:21;;;;;;;14.13;10.27;;;14.40;99.90;;;;;;10059994;29;20229;-94
2022/10/26 14:47:30;;;;;;;12.63;9.67;;;14.30;99.90;;;;;;10044334;29;20217;-93
2022/10/26 14:52:35;;;;;;;12.73;10.80;;;14.20;99.90;;;;;;10060237;29;20278;-95
2022/10/26 14:57:40;;;;;;;36.57;12.30;;;14.20;99.90;;;;;;10029018;29;20213;-93
2022/10/26 15:02:54;;;;;;;17.90;10.50;;;13.90;99.90;;;;;;10044233;29;20289;-93
2022/10/26 15:07:57;;;;;;;24.40;11.30;;;13.60;99.90;;;;;;10059220;29;20209;-94
2022/10/26 15:13:17;;;;;;;18.33;11.70;;;13.50;99.90;;;;;;10060191;29;20260;-95
2022/10/26 15:18:27;;;;;;;17.63;9.90;;;13.10;99.90;;;;;;10041202;29;20325;-94
2022/10/26 15:23:30;;;;;;;15.70;10.07;;;12.70;99.90;;;;;;10039185;29;20300;-96
2022/10/26 15:28:37;;;;;;;31.67;14.37;;;12.40;99.90;;;;;;10041236;29;20352;-95
2022/10/26 15:33:41;;;;;;;27.43;12.33;;;12.10;99.90;;;;;;10041057;29;20250;-95
2022/10/26 15:38:45;;;;;;;21.63;11.80;;;11.90;99.90;;;;;;10041669;29;20676;-94
2022/10/26 15:43:49;;;;;;;22.97;11.77;;;11.90;99.90;;;;;;10040411;29;20216;-94
2022/10/26 15:48:58;;;;;;;18.07;12.30;;;11.30;99.90;;;;;;10036806;29;20336;-95
2022/10/26 15:54:03;;;;;;;22.97;13.43;;;11.20;99.90;;;;;;10041632;29;20230;-95
2022/10/26 15:59:17;;;;;;;29.20;17.27;;;11.10;99.90;;;;;;10042805;29;20206;-95
2022/10/26 16:04:19;;;;;;;40.50;21.23;;;10.80;99.90;;;;;;10021363;29;20850;-93
2022/10/26 16:09:22;;;;;;;52.40;29.23;;;10.60;99.90;;;;;;10040180;29;20209;-90
2022/10/26 16:14:24;;;;;;;90.73;49.67;;;11.60;99.90;;;;;;10052144;29;20257;-89
2022/10/26 16:19:34;;;;;;;93.80;46.87;;;10.50;99.90;;;;;;10036250;29;20233;-89
2022/10/26 16:24:36;;;;;;;68.00;35.87;;;10.30;99.90;;;;;;10002273;29;20327;-90
2022/10/26 16:29:39;;;;;;;51.47;25.33;;;10.10;99.90;;;;;;10031172;29;20246;-89
2022/10/26 16:34:41;;;;;;;33.90;21.73;;;10.00;99.90;;;;;;9717336;29;9999757;-89
2022/10/26 16:39:44;;;;;;;36.20;22.07;;;10.00;99.90;;;;;;10052793;29;20270;-90
2022/10/26 16:44:46;;;;;;;40.33;21.43;;;9.80;99.90;;;;;;10013360;29;20283;-89
2022/10/26 16:49:49;;;;;;;33.50;18.83;;;9.60;99.90;;;;;;10012658;29;20290;-89
2022/10/26 16:54:53;;;;;;;37.67;22.53;;;9.50;99.90;;;;;;10020110;29;20249;-89
2022/10/26 16:59:56;;;;;;;50.97;26.80;;;9.60;99.90;;;;;;10048820;29;20233;-89
2022/10/26 17:04:59;;;;;;;52.97;29.13;;;9.60;99.90;;;;;;10048891;29;20237;-89
2022/10/26 17:10:08;;;;;;;40.83;24.97;;;9.30;99.90;;;;;;10037241;29;20237;-89
2022/10/26 17:15:11;;;;;;;42.83;23.97;;;9.00;99.90;;;;;;10050806;29;20265;-88
2022/10/26 17:20:23;;;;;;;41.23;23.33;;;8.90;99.90;;;;;;10049050;29;20692;-89
2022/10/26 17:25:28;;;;;;;41.17;24.70;;;8.90;99.90;;;;;;10036122;29;20277;-89
2022/10/26 17:30:32;;;;;;;47.03;25.33;;;8.70;99.90;;;;;;10035163;29;20249;-89
2022/10/26 17:35:37;;;;;;;50.67;28.53;;;8.70;99.90;;;;;;10051303;29;20256;-89
2022/10/26 17:40:40;;;;;;;54.87;31.23;;;8.60;99.90;;;;;;10045533;29;20238;-89
2022/10/26 17:45:43;;;;;;;45.03;26.83;;;8.40;99.90;;;;;;10036011;29;20270;-89
2022/10/26 17:50:46;;;;;;;41.37;25.03;;;8.30;99.90;;;;;;10045524;29;20291;-89
2022/10/26 17:55:49;;;;;;;46.43;25.13;;;8.20;99.90;;;;;;10035511;29;20765;-89
2022/10/26 18:00:51;;;;;;;52.47;25.83;;;8.30;99.90;;;;;;10046863;29;20266;-89
2022/10/26 18:05:54;;;;;;;45.13;24.77;;;8.20;99.90;;;;;;10014757;29;20242;-89
2022/10/26 18:10:57;;;;;;;47.93;27.30;;;8.10;99.90;;;;;;10034150;29;20304;-89
2022/10/26 18:16:06;;;;;;;50.07;28.43;;;8.10;99.90;;;;;;10032340;29;20332;-89
2022/10/26 18:21:10;;;;;;;45.77;26.90;;;8.00;99.90;;;;;;10025222;29;20230;-89
2022/10/26 18:26:16;;;;;;;49.40;27.50;;;8.00;99.90;;;;;;10032178;29;20271;-89
2022/10/26 18:31:21;;;;;;;45.87;26.93;;;8.00;99.90;;;;;;10050919;29;20238;-89
2022/10/26 18:36:24;;;;;;;52.17;29.67;;;7.80;99.90;;;;;;10034922;29;20665;-89
2022/10/26 18:41:28;;;;;;;57.80;31.67;;;8.00;99.90;;;;;;10030474;29;20772;-90
2022/10/26 18:46:38;;;;;;;57.23;30.47;;;7.80;99.90;;;;;;10034015;29;20241;-89
2022/10/26 18:51:41;;;;;;;60.03;33.40;;;;;;;;;;10042853;29;20293;-88
2022/10/26 18:56:44;;;;;;;75.03;39.67;;;7.60;99.90;;;;;;10031131;29;20286;-89
2022/10/26 19:01:48;;;;;;;70.50;39.67;;;7.70;99.90;;;;;;10049943;29;20241;-88
2022/10/26 19:06:51;;;;;;;59.23;34.70;;;7.60;99.90;;;;;;10048875;29;20234;-89
2022/10/26 19:11:53;;;;;;;55.97;31.30;;;7.60;99.90;;;;;;10047457;29;20711;-89
2022/10/26 19:16:57;;;;;;;59.37;32.47;;;7.60;99.90;;;;;;10029556;29;20321;-88
2022/10/26 19:21:59;;;;;;;45.73;27.77;;;7.60;99.90;;;;;;10032085;29;20298;-88
2022/10/26 19:27:02;;;;;;;43.23;27.50;;;7.50;99.90;;;;;;10038220;29;20360;-88
2022/10/26 19:32:05;;;;;;;46.33;27.13;;;7.40;99.90;;;;;;10053056;29;20634;-90
2022/10/26 19:37:08;;;;;;;45.07;27.37;;;7.50;99.90;;;;;;10039638;29;20684;-89
2022/10/26 19:42:10;;;;;;;46.77;27.07;;;7.40;99.90;;;;;;10031365;29;20301;-89
2022/10/26 19:47:13;;;;;;;43.53;26.97;;;7.50;99.90;;;;;;10056736;29;20233;-90
2022/10/26 19:52:15;;;;;;;42.97;26.67;;;7.50;99.90;;;;;;10044351;29;20680;-89
2022/10/26 19:57:23;;;;;;;40.43;24.43;;;7.40;99.90;;;;;;10040081;29;20388;-89
2022/10/26 20:02:26;;;;;;;45.43;29.27;;;7.20;99.90;;;;;;10054862;29;20755;-88
2022/10/26 20:07:28;;;;;;;52.57;26.93;;;7.30;99.90;;;;;;10055019;29;20729;-88
2022/10/26 20:12:30;;;;;;;49.03;28.53;;;7.10;99.90;;;;;;10016604;29;20238;-88
2022/10/26 20:17:34;;;;;;;47.93;27.17;;;7.20;99.90;;;;;;9693719;29;10000363;-88
2022/10/26 20:22:36;;;;;;;59.03;28.53;;;7.20;99.90;;;;;;10033217;29;20237;-88
2022/10/26 20:27:40;;;;;;;44.80;27.60;;;7.00;99.90;;;;;;10026745;29;20237;-88
2022/10/26 20:32:43;;;;;;;45.80;27.37;;;7.00;99.90;;;;;;10033133;29;20332;-88
2022/10/26 20:37:45;;;;;;;44.33;28.63;;;7.00;99.90;;;;;;10043406;29;20744;-88
2022/10/26 20:42:51;;;;;;;51.73;26.80;;;6.90;99.90;;;;;;10012234;29;20333;-88
2022/10/26 20:47:54;;;;;;;48.37;28.03;;;6.90;99.90;;;;;;10014597;29;20289;-88
2022/10/26 20:53:31;;;;;;;42.90;27.80;;;7.00;99.90;;;;;;10049692;29;20409;-87
2022/10/26 20:58:42;;;;;;;54.90;27.77;;;7.10;99.90;;;;;;10022171;29;20237;-88
2022/10/26 21:03:45;;;;;;;42.97;25.70;;;6.80;99.90;;;;;;10049986;29;20245;-88
2022/10/26 21:08:48;;;;;;;41.93;26.33;;;6.90;99.90;;;;;;10050835;29;20296;-88
2022/10/26 21:13:53;;;;;;;41.70;25.53;;;7.00;99.90;;;;;;10016901;29;20282;-88
2022/10/26 21:18:55;;;;;;;39.83;24.60;;;6.90;99.90;;;;;;10021403;29;20348;-88
2022/10/26 21:23:58;;;;;;;43.03;27.03;;;6.80;99.90;;;;;;10046653;29;20234;-87
2022/10/26 21:29:00;;;;;;;46.97;24.97;;;6.80;99.90;;;;;;10027501;29;20317;-88
2022/10/26 21:34:03;;;;;;;39.47;25.00;;;6.60;99.90;;;;;;10033747;29;20321;-88
2022/10/26 21:39:05;;;;;;;44.17;22.70;;;6.60;99.90;;;;;;10035642;29;20233;-88
2022/10/26 21:44:09;;;;;;;38.13;25.37;;;6.50;99.90;;;;;;10032434;29;20757;-88
2022/10/26 21:49:31;;;;;;;40.23;24.60;;;6.40;99.90;;;;;;10026160;29;20288;-88
2022/10/26 21:54:33;;;;;;;37.20;23.70;;;6.40;99.90;;;;;;10035975;29;20260;-88
2022/10/26 21:59:36;;;;;;;35.20;23.63;;;6.50;99.90;;;;;;10053180;29;20778;-88
2022/10/26 22:04:38;;;;;;;39.67;23.70;;;6.50;99.90;;;;;;10035044;29;20301;-87
2022/10/26 22:09:41;;;;;;;44.07;23.53;;;6.30;99.90;;;;;;10037486;29;20654;-88
2022/10/26 22:15:04;;;;;;;37.97;24.00;;;6.50;99.90;;;;;;10035699;29;20260;-88
2022/10/26 22:20:09;;;;;;;37.67;22.83;;;6.30;99.90;;;;;;10051821;29;20261;-88
2022/10/26 22:25:21;;;;;;;46.70;23.17;;;6.20;99.90;;;;;;10039526;29;20234;-88
2022/10/26 22:30:35;;;;;;;36.53;23.83;;;6.30;99.90;;;;;;10036339;29;20208;-88
2022/10/26 22:35:37;;;;;;;32.50;22.07;;;6.30;99.90;;;;;;10052062;29;20249;-88
2022/10/26 22:40:40;;;;;;;40.07;25.83;;;6.40;99.90;;;;;;10051184;29;20278;-88
2022/10/26 22:45:42;;;;;;;37.40;22.90;;;6.80;99.90;;;;;;10020328;29;20210;-88
2022/10/26 22:50:44;;;;;;;35.17;21.87;;;6.80;99.90;;;;;;10032087;29;20237;-88
2022/10/26 22:55:47;;;;;;;39.77;22.07;;;6.80;99.90;;;;;;10051884;29;20388;-89
2022/10/26 23:00:50;;;;;;;33.00;22.03;;;6.80;99.90;;;;;;10042369;29;20307;-88
2022/10/26 23:05:52;;;;;;;34.77;22.80;;;6.80;99.90;;;;;;10059138;29;20233;-89
2022/10/26 23:10:59;;;;;;;36.83;23.40;;;6.90;99.90;;;;;;10058518;29;20249;-89
2022/10/26 23:16:16;;;;;;;38.33;24.67;;;7.00;99.90;;;;;;10040704;29;20935;-89
2022/10/26 23:21:21;;;;;;;38.57;24.67;;;7.10;99.90;;;;;;10042087;29;20249;-88
2022/10/26 23:26:24;;;;;;;34.17;22.10;;;7.30;99.90;;;;;;10029083;29;20249;-89
2022/10/26 23:31:27;;;;;;;37.97;24.07;;;7.20;99.90;;;;;;10056212;29;20690;-89
2022/10/26 23:36:29;;;;;;;40.63;26.33;;;7.00;99.90;;;;;;10039455;29;20265;-89
2022/10/26 23:41:32;;;;;;;42.87;23.20;;;6.90;99.90;;;;;;10040695;29;20222;-89
2022/10/26 23:46:34;;;;;;;37.00;23.30;;;6.80;99.90;;;;;;10057658;29;20245;-89
2022/10/26 23:51:37;;;;;;;38.43;24.77;;;6.90;99.90;;;;;;10034089;29;20641;-88
2022/10/26 23:56:39;;;;;;;43.67;25.43;;;6.70;99.90;;;;;;10037487;29;20277;-89
